アティラウ の空港の天気 - METARとTAF

Atyrau Airport ( UATG / GUW ) - カザフスタン Atyrau
飛行場実況気象(Metar)
観測時間01/23 10:30 ORAT (01/23 05:30 UTC)
風向・風速東南東 9m/s
視程10km以上
天気現象
なし
気温-6℃
湿度86%
気圧1014hPa
METARUATG 230530Z 11009MPS CAVOK M06/M08 Q1014 R14/82//65 NOSIG RMK QFE762/1016
過去の天気等 Google飛行場航空写真 Wunderground天気予報

過去48時間のMETAR

飛行場予報(TAF)
発表時間: 1/23 10:01 ORAT (1/23 05:01 UTC)
予報対象時間: 23日11時 ORAT ~ 24日11時 ORAT
風向・風速東 10m/s 瞬間風速 15m/s
視程10km以上
全天の8割程度の雲 雲底高度 300m
全天の8割程度の雲 雲底高度 1,010m
TAF UATG 230501Z 2306/2406 10010G15MPS 9999 BKN010 BKN033 TXM01/2311Z TNM07/2403Z